OEO254 EGNT-EKCH
Flight info
| Callsign | OEO254 |
|---|---|
| Flight time | 1h 23m |
| Altitude | 37000 |
| Route | GIRLI P18 GASKO Y250 OBOXA P17 MEJAC DCT SURAT DCT PETIL DCT TESPI |
| Aircraft | A320/M-SDE3FGHIRWY/LB1 |
Departure
| Time | 2026-05-04 18:59 |
|---|---|
| Airport | Newcastle International Airport (EGNT) |
Arrival
| Time | 2026-05-04 20:22 |
|---|---|
| Airport | Copenhagen Kastrup Airport (EKCH) |
| Time | Latitude | Longitude | Altitude | Speed | Heading |
|---|---|---|---|---|---|
| 2026-05-04 18:28 | 55.03722 | -1.70602 | 260 ft | 0 kts | 242° |
| 2026-05-04 18:50 | 55.03733 | -1.70569 | 259 ft | 4 kts | 229° |
| 2026-05-04 18:50 | 55.03753 | -1.70538 | 259 ft | 4 kts | 212° |
| 2026-05-04 18:51 | 55.03775 | -1.70513 | 258 ft | 4 kts | 228° |
| 2026-05-04 18:51 | 55.03792 | -1.70476 | 258 ft | 4 kts | 241° |
| 2026-05-04 18:51 | 55.03800 | -1.70447 | 258 ft | 1 kts | 245° |
| 2026-05-04 18:51 | 55.03801 | -1.70442 | 258 ft | 0 kts | 245° |
| 2026-05-04 18:54 | 55.03786 | -1.70428 | 258 ft | 5 kts | 119° |
| 2026-05-04 18:55 | 55.03778 | -1.70269 | 256 ft | 18 kts | 92° |
| 2026-05-04 18:55 | 55.03795 | -1.69733 | 251 ft | 25 kts | 76° |
| 2026-05-04 18:55 | 55.03857 | -1.69426 | 248 ft | 29 kts | 64° |
| 2026-05-04 18:56 | 55.03943 | -1.69100 | 246 ft | 31 kts | 66° |
| 2026-05-04 18:56 | 55.04039 | -1.68745 | 244 ft | 34 kts | 65° |
| 2026-05-04 18:56 | 55.04140 | -1.68360 | 243 ft | 36 kts | 65° |
| 2026-05-04 18:56 | 55.04246 | -1.67961 | 243 ft | 37 kts | 65° |
| 2026-05-04 18:57 | 55.04327 | -1.67654 | 242 ft | 12 kts | 66° |
| 2026-05-04 18:57 | 55.04335 | -1.67505 | 242 ft | 14 kts | 95° |
| 2026-05-04 18:57 | 55.04299 | -1.67378 | 250 ft | 12 kts | 152° |
| 2026-05-04 18:57 | 55.04211 | -1.67405 | 242 ft | 15 kts | 229° |
| 2026-05-04 18:58 | 55.04163 | -1.67582 | 241 ft | 17 kts | 246° |
| 2026-05-04 18:58 | 55.04091 | -1.67857 | 239 ft | 44 kts | 245° |
| 2026-05-04 18:58 | 55.03864 | -1.68713 | 241 ft | 108 kts | 245° |
| 2026-05-04 18:58 | 55.03485 | -1.70160 | 299 ft | 149 kts | 248° |
| 2026-05-04 18:59 | 55.03066 | -1.71784 | 923 ft | 147 kts | 249° |
| 2026-05-04 18:59 | 55.02637 | -1.73405 | 1546 ft | 147 kts | 249° |
| 2026-05-04 18:59 | 55.02179 | -1.75121 | 1829 ft | 166 kts | 243° |
| 2026-05-04 18:59 | 55.01216 | -1.76411 | 2069 ft | 195 kts | 194° |
| 2026-05-04 19:00 | 54.99787 | -1.76563 | 2338 ft | 216 kts | 186° |
| 2026-05-04 19:00 | 54.98303 | -1.77265 | 2647 ft | 231 kts | 207° |
| 2026-05-04 19:00 | 54.96746 | -1.78389 | 3080 ft | 253 kts | 205° |
| 2026-05-04 19:00 | 54.95075 | -1.79550 | 3835 ft | 262 kts | 205° |
| 2026-05-04 19:01 | 54.93363 | -1.80708 | 4781 ft | 265 kts | 203° |
| 2026-05-04 19:01 | 54.91640 | -1.81841 | 5757 ft | 264 kts | 203° |
| 2026-05-04 19:01 | 54.89943 | -1.82960 | 6684 ft | 265 kts | 202° |
| 2026-05-04 19:01 | 54.88195 | -1.84155 | 7522 ft | 269 kts | 204° |
| 2026-05-04 19:02 | 54.86463 | -1.85349 | 7894 ft | 273 kts | 204° |
| 2026-05-04 19:02 | 54.84693 | -1.86566 | 8038 ft | 274 kts | 204° |
| 2026-05-04 19:02 | 54.82878 | -1.87598 | 8036 ft | 276 kts | 193° |
| 2026-05-04 19:02 | 54.80949 | -1.87668 | 8026 ft | 281 kts | 174° |
| 2026-05-04 19:03 | 54.79074 | -1.86699 | 8025 ft | 285 kts | 157° |
| 2026-05-04 19:03 | 54.77306 | -1.85135 | 8033 ft | 285 kts | 156° |
| 2026-05-04 19:03 | 54.75518 | -1.83656 | 8032 ft | 285 kts | 158° |
| 2026-05-04 19:03 | 54.73717 | -1.82225 | 8021 ft | 285 kts | 158° |
| 2026-05-04 19:04 | 54.71869 | -1.81018 | 8005 ft | 283 kts | 169° |
| 2026-05-04 19:04 | 54.69916 | -1.80725 | 8082 ft | 286 kts | 186° |
| 2026-05-04 19:04 | 54.67907 | -1.81253 | 8728 ft | 290 kts | 190° |
| 2026-05-04 19:04 | 54.65900 | -1.81559 | 9707 ft | 291 kts | 185° |
| 2026-05-04 19:05 | 54.63866 | -1.81638 | 10415 ft | 298 kts | 184° |
| 2026-05-04 19:05 | 54.61717 | -1.81670 | 10662 ft | 320 kts | 183° |
| 2026-05-04 19:05 | 54.59409 | -1.81717 | 10802 ft | 343 kts | 183° |
| 2026-05-04 19:05 | 54.56969 | -1.81798 | 11154 ft | 356 kts | 184° |
| 2026-05-04 19:06 | 54.54482 | -1.81905 | 11774 ft | 360 kts | 184° |
| 2026-05-04 19:06 | 54.51967 | -1.82035 | 12439 ft | 363 kts | 184° |
| 2026-05-04 19:06 | 54.49435 | -1.82106 | 13108 ft | 367 kts | 179° |
| 2026-05-04 19:06 | 54.46913 | -1.81272 | 13774 ft | 373 kts | 163° |
| 2026-05-04 19:07 | 54.44588 | -1.79231 | 14375 ft | 380 kts | 146° |
| 2026-05-04 19:07 | 54.42665 | -1.76095 | 14933 ft | 386 kts | 129° |
| 2026-05-04 19:07 | 54.41322 | -1.72087 | 15477 ft | 391 kts | 112° |
| 2026-05-04 19:07 | 54.40699 | -1.67550 | 16019 ft | 394 kts | 95° |
| 2026-05-04 19:08 | 54.40862 | -1.62849 | 16563 ft | 397 kts | 77° |
| 2026-05-04 19:08 | 54.41809 | -1.58406 | 17127 ft | 398 kts | 61° |
| 2026-05-04 19:08 | 54.43169 | -1.54244 | 17688 ft | 401 kts | 59° |
| 2026-05-04 19:08 | 54.44543 | -1.50058 | 18255 ft | 404 kts | 59° |
| 2026-05-04 19:09 | 54.45924 | -1.45840 | 18759 ft | 406 kts | 60° |
| 2026-05-04 19:09 | 54.47311 | -1.41577 | 19269 ft | 409 kts | 60° |
| 2026-05-04 19:09 | 54.48692 | -1.37310 | 19785 ft | 411 kts | 60° |
| 2026-05-04 19:09 | 54.50087 | -1.32996 | 20294 ft | 414 kts | 60° |
| 2026-05-04 19:10 | 54.51492 | -1.28651 | 20769 ft | 417 kts | 60° |
| 2026-05-04 19:10 | 54.52904 | -1.24274 | 21246 ft | 419 kts | 60° |
| 2026-05-04 19:10 | 54.54323 | -1.19871 | 21698 ft | 422 kts | 60° |
| 2026-05-04 19:10 | 54.55748 | -1.15442 | 22146 ft | 424 kts | 60° |
| 2026-05-04 19:11 | 54.57182 | -1.10985 | 22579 ft | 426 kts | 60° |
| 2026-05-04 19:11 | 54.58619 | -1.06506 | 23042 ft | 429 kts | 60° |
| 2026-05-04 19:11 | 54.60065 | -1.01983 | 23471 ft | 431 kts | 60° |
| 2026-05-04 19:11 | 54.61513 | -0.97447 | 23846 ft | 434 kts | 60° |
| 2026-05-04 19:12 | 54.62974 | -0.92864 | 24200 ft | 436 kts | 60° |
| 2026-05-04 19:12 | 54.65900 | -0.83660 | 24903 ft | 440 kts | 60° |
| 2026-05-04 19:12 | 54.67372 | -0.79019 | 25247 ft | 441 kts | 60° |
| 2026-05-04 19:13 | 54.68849 | -0.74354 | 25593 ft | 443 kts | 60° |
| 2026-05-04 19:13 | 54.70330 | -0.69663 | 25946 ft | 445 kts | 60° |
| 2026-05-04 19:13 | 54.71813 | -0.64947 | 26303 ft | 447 kts | 60° |
| 2026-05-04 19:13 | 54.73299 | -0.60204 | 26660 ft | 449 kts | 60° |
| 2026-05-04 19:14 | 54.74794 | -0.55441 | 27009 ft | 451 kts | 60° |
| 2026-05-04 19:14 | 54.76296 | -0.50651 | 27299 ft | 455 kts | 60° |
| 2026-05-04 19:14 | 54.77808 | -0.45819 | 27561 ft | 459 kts | 60° |
| 2026-05-04 19:14 | 54.79323 | -0.40960 | 28006 ft | 458 kts | 60° |
| 2026-05-04 19:15 | 54.80832 | -0.36103 | 28470 ft | 457 kts | 60° |
| 2026-05-04 19:15 | 54.82335 | -0.31255 | 28949 ft | 456 kts | 60° |
| 2026-05-04 19:15 | 54.83835 | -0.26412 | 29426 ft | 455 kts | 60° |
| 2026-05-04 19:15 | 54.85311 | -0.21645 | 29902 ft | 454 kts | 60° |
| 2026-05-04 19:16 | 54.86805 | -0.16819 | 30334 ft | 453 kts | 60° |
| 2026-05-04 19:16 | 54.88294 | -0.12002 | 30739 ft | 452 kts | 60° |
| 2026-05-04 19:16 | 54.89778 | -0.07191 | 31164 ft | 451 kts | 60° |
| 2026-05-04 19:16 | 54.91252 | -0.02386 | 31586 ft | 450 kts | 60° |
| 2026-05-04 19:17 | 54.92720 | 0.02411 | 32028 ft | 449 kts | 60° |
| 2026-05-04 19:17 | 54.94179 | 0.07190 | 32441 ft | 448 kts | 60° |
| 2026-05-04 19:17 | 54.95636 | 0.11978 | 32868 ft | 447 kts | 60° |
| 2026-05-04 19:17 | 54.97089 | 0.16756 | 33290 ft | 446 kts | 60° |
| 2026-05-04 19:18 | 54.98539 | 0.21525 | 33724 ft | 445 kts | 60° |
| 2026-05-04 19:18 | 54.99984 | 0.26285 | 34128 ft | 444 kts | 60° |
| 2026-05-04 19:18 | 55.01423 | 0.31040 | 34463 ft | 444 kts | 60° |
| 2026-05-04 19:18 | 55.02865 | 0.35816 | 34681 ft | 446 kts | 60° |
| 2026-05-04 19:19 | 55.04311 | 0.40615 | 34936 ft | 447 kts | 61° |
| 2026-05-04 19:19 | 55.05757 | 0.45422 | 35230 ft | 448 kts | 61° |
| 2026-05-04 19:19 | 55.07200 | 0.50232 | 35518 ft | 447 kts | 61° |
| 2026-05-04 19:19 | 55.08640 | 0.55044 | 35821 ft | 447 kts | 61° |
| 2026-05-04 19:20 | 55.10080 | 0.59854 | 36116 ft | 447 kts | 61° |
| 2026-05-04 19:20 | 55.11513 | 0.64650 | 36407 ft | 446 kts | 61° |
| 2026-05-04 19:20 | 55.12949 | 0.69454 | 36675 ft | 446 kts | 61° |
| 2026-05-04 19:20 | 55.14365 | 0.74207 | 36941 ft | 446 kts | 61° |
| 2026-05-04 19:21 | 55.15812 | 0.79083 | 37032 ft | 448 kts | 61° |
| 2026-05-04 19:21 | 55.18708 | 0.88892 | 37036 ft | 457 kts | 62° |
| 2026-05-04 19:22 | 55.21622 | 0.98810 | 37036 ft | 459 kts | 62° |
| 2026-05-04 19:22 | 55.24518 | 1.08695 | 37035 ft | 459 kts | 62° |
| 2026-05-04 19:23 | 55.27432 | 1.18666 | 37038 ft | 461 kts | 62° |
| 2026-05-04 19:23 | 55.30357 | 1.28721 | 37036 ft | 463 kts | 62° |
| 2026-05-04 19:24 | 55.32785 | 1.37118 | 37046 ft | 464 kts | 62° |
| 2026-05-04 19:24 | 55.35729 | 1.47311 | 37048 ft | 465 kts | 62° |
| 2026-05-04 19:25 | 55.38624 | 1.57396 | 37053 ft | 465 kts | 62° |
| 2026-05-04 19:25 | 55.41525 | 1.67559 | 37056 ft | 465 kts | 62° |
| 2026-05-04 19:26 | 55.44416 | 1.77754 | 37058 ft | 465 kts | 62° |
| 2026-05-04 19:26 | 55.47313 | 1.87948 | 37055 ft | 465 kts | 62° |
| 2026-05-04 19:27 | 55.50193 | 1.98160 | 37055 ft | 465 kts | 62° |
| 2026-05-04 19:27 | 55.53060 | 2.08400 | 37057 ft | 466 kts | 62° |
| 2026-05-04 19:28 | 55.55929 | 2.18674 | 37029 ft | 467 kts | 62° |
| 2026-05-04 19:28 | 55.58725 | 2.29048 | 37033 ft | 469 kts | 70° |
| 2026-05-04 19:28 | 55.59434 | 2.34662 | 37033 ft | 469 kts | 82° |
| 2026-05-04 19:29 | 55.59842 | 2.40384 | 37034 ft | 469 kts | 82° |
| 2026-05-04 19:29 | 55.60639 | 2.51844 | 37038 ft | 470 kts | 83° |
| 2026-05-04 19:30 | 55.61425 | 2.63343 | 37045 ft | 471 kts | 83° |
| 2026-05-04 19:30 | 55.62196 | 2.74856 | 37050 ft | 471 kts | 83° |
| 2026-05-04 19:31 | 55.62970 | 2.86377 | 37056 ft | 471 kts | 83° |
| 2026-05-04 19:31 | 55.63735 | 2.97887 | 37056 ft | 471 kts | 83° |
| 2026-05-04 19:32 | 55.64488 | 3.09424 | 37051 ft | 472 kts | 83° |
| 2026-05-04 19:32 | 55.65227 | 3.20888 | 37059 ft | 472 kts | 83° |
| 2026-05-04 19:33 | 55.65961 | 3.32498 | 37059 ft | 472 kts | 83° |
| 2026-05-04 19:33 | 55.66676 | 3.43968 | 37052 ft | 471 kts | 83° |
| 2026-05-04 19:34 | 55.67389 | 3.55504 | 37052 ft | 471 kts | 83° |
| 2026-05-04 19:34 | 55.68090 | 3.67040 | 37054 ft | 471 kts | 84° |
| 2026-05-04 19:35 | 55.68772 | 3.78593 | 37054 ft | 471 kts | 84° |
| 2026-05-04 19:35 | 55.69441 | 3.90149 | 37056 ft | 471 kts | 84° |
| 2026-05-04 19:36 | 55.70105 | 4.01691 | 37055 ft | 471 kts | 84° |
| 2026-05-04 19:36 | 55.70760 | 4.13253 | 37054 ft | 471 kts | 84° |
| 2026-05-04 19:37 | 55.71405 | 4.24821 | 37066 ft | 472 kts | 84° |
| 2026-05-04 19:37 | 55.72037 | 4.36422 | 37048 ft | 473 kts | 84° |
| 2026-05-04 19:38 | 55.72664 | 4.48036 | 37039 ft | 474 kts | 84° |
| 2026-05-04 19:38 | 55.73275 | 4.59685 | 37045 ft | 474 kts | 84° |
| 2026-05-04 19:39 | 55.73877 | 4.71350 | 37039 ft | 475 kts | 84° |
| 2026-05-04 19:39 | 55.74473 | 4.83017 | 37053 ft | 475 kts | 85° |
| 2026-05-04 19:40 | 55.75049 | 4.94670 | 37045 ft | 474 kts | 85° |
| 2026-05-04 19:40 | 55.75618 | 5.06332 | 37044 ft | 474 kts | 85° |
| 2026-05-04 19:41 | 55.76170 | 5.17920 | 37044 ft | 474 kts | 85° |
| 2026-05-04 19:41 | 55.76717 | 5.29584 | 37050 ft | 474 kts | 85° |
| 2026-05-04 19:42 | 55.77255 | 5.41253 | 37050 ft | 474 kts | 85° |
| 2026-05-04 19:42 | 55.77781 | 5.52915 | 37045 ft | 474 kts | 85° |
| 2026-05-04 19:43 | 55.78294 | 5.64593 | 37041 ft | 474 kts | 85° |
| 2026-05-04 19:43 | 55.78802 | 5.76278 | 37040 ft | 474 kts | 85° |
| 2026-05-04 19:44 | 55.79294 | 5.87967 | 37039 ft | 474 kts | 86° |
| 2026-05-04 19:44 | 55.79777 | 5.99663 | 37046 ft | 475 kts | 86° |
| 2026-05-04 19:45 | 55.80245 | 6.11367 | 37050 ft | 475 kts | 86° |
| 2026-05-04 19:45 | 55.80702 | 6.23077 | 37033 ft | 475 kts | 86° |
| 2026-05-04 19:46 | 55.81145 | 6.34782 | 37048 ft | 475 kts | 86° |
| 2026-05-04 19:46 | 55.81523 | 6.46529 | 37049 ft | 475 kts | 88° |
| 2026-05-04 19:47 | 55.81661 | 6.58268 | 37047 ft | 475 kts | 90° |
| 2026-05-04 19:47 | 55.81706 | 6.69940 | 37046 ft | 475 kts | 90° |
| 2026-05-04 19:48 | 55.81787 | 6.81683 | 37041 ft | 475 kts | 89° |
| 2026-05-04 19:48 | 55.81903 | 6.93436 | 37041 ft | 475 kts | 89° |
| 2026-05-04 19:49 | 55.82007 | 7.05194 | 37037 ft | 476 kts | 90° |
| 2026-05-04 19:49 | 55.82089 | 7.16952 | 37037 ft | 475 kts | 90° |
| 2026-05-04 19:50 | 55.82155 | 7.28708 | 37040 ft | 475 kts | 90° |
| 2026-05-04 19:50 | 55.82217 | 7.40469 | 37037 ft | 476 kts | 90° |
| 2026-05-04 19:51 | 55.82264 | 7.52241 | 37038 ft | 476 kts | 90° |
| 2026-05-04 19:51 | 55.82287 | 7.63935 | 37039 ft | 476 kts | 90° |
| 2026-05-04 19:52 | 55.82315 | 7.75691 | 37038 ft | 476 kts | 90° |
| 2026-05-04 19:52 | 55.82337 | 7.87464 | 37039 ft | 476 kts | 90° |
| 2026-05-04 19:53 | 55.82338 | 7.99243 | 37032 ft | 476 kts | 90° |
| 2026-05-04 19:53 | 55.82326 | 8.11027 | 37032 ft | 477 kts | 90° |
| 2026-05-04 19:54 | 55.82311 | 8.22826 | 37033 ft | 477 kts | 90° |
| 2026-05-04 19:54 | 55.82279 | 8.34624 | 37029 ft | 477 kts | 91° |
| 2026-05-04 19:55 | 55.82234 | 8.46406 | 37027 ft | 477 kts | 91° |
| 2026-05-04 19:55 | 55.82179 | 8.58211 | 36876 ft | 478 kts | 91° |
| 2026-05-04 19:55 | 55.82147 | 8.64114 | 36604 ft | 477 kts | 91° |
| 2026-05-04 19:56 | 55.82114 | 8.70006 | 36341 ft | 476 kts | 91° |
| 2026-05-04 19:56 | 55.82080 | 8.75894 | 36099 ft | 476 kts | 91° |
| 2026-05-04 19:56 | 55.82042 | 8.81777 | 35834 ft | 476 kts | 91° |
| 2026-05-04 19:56 | 55.81997 | 8.87657 | 35583 ft | 475 kts | 91° |
| 2026-05-04 19:57 | 55.81950 | 8.93533 | 35334 ft | 475 kts | 91° |
| 2026-05-04 19:57 | 55.81902 | 8.99407 | 35088 ft | 475 kts | 91° |
| 2026-05-04 19:57 | 55.81854 | 9.05260 | 34840 ft | 475 kts | 91° |
| 2026-05-04 19:57 | 55.81804 | 9.11130 | 34587 ft | 474 kts | 91° |
| 2026-05-04 19:58 | 55.81747 | 9.16982 | 34360 ft | 473 kts | 91° |
| 2026-05-04 19:58 | 55.81686 | 9.22834 | 34123 ft | 473 kts | 91° |
| 2026-05-04 19:58 | 55.81624 | 9.28672 | 33868 ft | 472 kts | 91° |
| 2026-05-04 19:58 | 55.81559 | 9.34515 | 33590 ft | 472 kts | 91° |
| 2026-05-04 19:59 | 55.81491 | 9.40348 | 33317 ft | 473 kts | 91° |
| 2026-05-04 19:59 | 55.81420 | 9.46204 | 33043 ft | 473 kts | 91° |
| 2026-05-04 19:59 | 55.81345 | 9.52047 | 32772 ft | 474 kts | 91° |
| 2026-05-04 19:59 | 55.81264 | 9.57909 | 32505 ft | 474 kts | 91° |
| 2026-05-04 20:00 | 55.81182 | 9.63776 | 32241 ft | 475 kts | 92° |
| 2026-05-04 20:00 | 55.81101 | 9.69578 | 31982 ft | 476 kts | 92° |
| 2026-05-04 20:00 | 55.81016 | 9.75543 | 31715 ft | 476 kts | 92° |
| 2026-05-04 20:00 | 55.80930 | 9.81423 | 31459 ft | 477 kts | 92° |
| 2026-05-04 20:01 | 55.80842 | 9.87243 | 31204 ft | 477 kts | 92° |
| 2026-05-04 20:01 | 55.80751 | 9.93150 | 30959 ft | 478 kts | 92° |
| 2026-05-04 20:01 | 55.80659 | 9.99060 | 30717 ft | 478 kts | 92° |
| 2026-05-04 20:01 | 55.80563 | 10.04975 | 30459 ft | 479 kts | 92° |
| 2026-05-04 20:02 | 55.80464 | 10.10897 | 30214 ft | 480 kts | 92° |
| 2026-05-04 20:02 | 55.80361 | 10.16826 | 29956 ft | 480 kts | 92° |
| 2026-05-04 20:02 | 55.80256 | 10.22754 | 29662 ft | 482 kts | 92° |
| 2026-05-04 20:02 | 55.80165 | 10.28721 | 29370 ft | 484 kts | 92° |
| 2026-05-04 20:03 | 55.80083 | 10.34703 | 29079 ft | 485 kts | 92° |
| 2026-05-04 20:03 | 55.80006 | 10.40699 | 28806 ft | 486 kts | 92° |
| 2026-05-04 20:03 | 55.79931 | 10.46706 | 28528 ft | 486 kts | 92° |
| 2026-05-04 20:03 | 55.79851 | 10.52720 | 27541 ft | 489 kts | 92° |
| 2026-05-04 20:04 | 55.79763 | 10.58742 | 26831 ft | 484 kts | 92° |
| 2026-05-04 20:04 | 55.79669 | 10.64705 | 26091 ft | 481 kts | 92° |
| 2026-05-04 20:04 | 55.79570 | 10.70616 | 25359 ft | 477 kts | 92° |
| 2026-05-04 20:04 | 55.79467 | 10.76498 | 24630 ft | 475 kts | 92° |
| 2026-05-04 20:05 | 55.79364 | 10.82346 | 23898 ft | 472 kts | 92° |
| 2026-05-04 20:05 | 55.79258 | 10.88169 | 23205 ft | 470 kts | 92° |
| 2026-05-04 20:05 | 55.79151 | 10.93919 | 22392 ft | 462 kts | 92° |
| 2026-05-04 20:05 | 55.79046 | 10.99601 | 21694 ft | 458 kts | 92° |
| 2026-05-04 20:06 | 55.78940 | 11.05225 | 20999 ft | 453 kts | 92° |
| 2026-05-04 20:06 | 55.78831 | 11.10791 | 20343 ft | 448 kts | 92° |
| 2026-05-04 20:06 | 55.78721 | 11.16292 | 19699 ft | 444 kts | 92° |
| 2026-05-04 20:06 | 55.78610 | 11.21750 | 19085 ft | 440 kts | 92° |
| 2026-05-04 20:07 | 55.78497 | 11.27161 | 18508 ft | 436 kts | 92° |
| 2026-05-04 20:07 | 55.78383 | 11.32527 | 17865 ft | 433 kts | 92° |
| 2026-05-04 20:07 | 55.78266 | 11.37837 | 17274 ft | 429 kts | 92° |
| 2026-05-04 20:07 | 55.78146 | 11.43106 | 16684 ft | 425 kts | 93° |
| 2026-05-04 20:08 | 55.78026 | 11.48257 | 16080 ft | 421 kts | 93° |
| 2026-05-04 20:08 | 55.77903 | 11.53429 | 15468 ft | 418 kts | 93° |
| 2026-05-04 20:08 | 55.77780 | 11.58575 | 14846 ft | 415 kts | 93° |
| 2026-05-04 20:08 | 55.77656 | 11.63694 | 14199 ft | 414 kts | 93° |
| 2026-05-04 20:09 | 55.77533 | 11.68790 | 13534 ft | 412 kts | 93° |
| 2026-05-04 20:09 | 55.77412 | 11.73847 | 12836 ft | 405 kts | 93° |
| 2026-05-04 20:09 | 55.77290 | 11.78768 | 12203 ft | 396 kts | 93° |
| 2026-05-04 20:09 | 55.77165 | 11.83635 | 11562 ft | 394 kts | 93° |
| 2026-05-04 20:10 | 55.77037 | 11.88485 | 10916 ft | 392 kts | 93° |
| 2026-05-04 20:10 | 55.76909 | 11.93247 | 10668 ft | 379 kts | 93° |
| 2026-05-04 20:10 | 55.76788 | 11.97856 | 10540 ft | 373 kts | 93° |
| 2026-05-04 20:10 | 55.76669 | 12.02456 | 10398 ft | 372 kts | 93° |
| 2026-05-04 20:11 | 55.76547 | 12.07028 | 9865 ft | 369 kts | 93° |
| 2026-05-04 20:11 | 55.76423 | 12.11562 | 9335 ft | 366 kts | 93° |
| 2026-05-04 20:11 | 55.76297 | 12.15997 | 9173 ft | 353 kts | 94° |
| 2026-05-04 20:11 | 55.76173 | 12.20272 | 9017 ft | 340 kts | 94° |
| 2026-05-04 20:12 | 55.76052 | 12.24400 | 8896 ft | 329 kts | 94° |
| 2026-05-04 20:12 | 55.75934 | 12.28387 | 8754 ft | 315 kts | 94° |
| 2026-05-04 20:12 | 55.75821 | 12.32144 | 8627 ft | 295 kts | 94° |
| 2026-05-04 20:12 | 55.75736 | 12.35701 | 8312 ft | 284 kts | 88° |
| 2026-05-04 20:13 | 55.75943 | 12.39167 | 7848 ft | 280 kts | 81° |
| 2026-05-04 20:13 | 55.76240 | 12.42564 | 7388 ft | 278 kts | 80° |
| 2026-05-04 20:13 | 55.76545 | 12.45933 | 6921 ft | 275 kts | 80° |
| 2026-05-04 20:13 | 55.76848 | 12.49283 | 6506 ft | 275 kts | 80° |
| 2026-05-04 20:14 | 55.77143 | 12.52571 | 6255 ft | 272 kts | 80° |
| 2026-05-04 20:14 | 55.77437 | 12.55885 | 5977 ft | 271 kts | 80° |
| 2026-05-04 20:14 | 55.77730 | 12.59174 | 5691 ft | 268 kts | 80° |
| 2026-05-04 20:14 | 55.78018 | 12.62428 | 5221 ft | 266 kts | 80° |
| 2026-05-04 20:15 | 55.78211 | 12.64607 | 4905 ft | 264 kts | 80° |
| 2026-05-04 20:15 | 55.78496 | 12.67812 | 4413 ft | 261 kts | 80° |
| 2026-05-04 20:15 | 55.78774 | 12.70998 | 4049 ft | 260 kts | 80° |
| 2026-05-04 20:15 | 55.79042 | 12.74145 | 3997 ft | 257 kts | 80° |
| 2026-05-04 20:16 | 55.79453 | 12.77201 | 3996 ft | 249 kts | 71° |
| 2026-05-04 20:16 | 55.79952 | 12.80041 | 3997 ft | 234 kts | 70° |
| 2026-05-04 20:16 | 55.80436 | 12.82739 | 3994 ft | 227 kts | 70° |
| 2026-05-04 20:16 | 55.80771 | 12.85462 | 3990 ft | 227 kts | 92° |
| 2026-05-04 20:17 | 55.80328 | 12.88074 | 3819 ft | 222 kts | 128° |
| 2026-05-04 20:17 | 55.79151 | 12.89706 | 3530 ft | 214 kts | 166° |
| 2026-05-04 20:17 | 55.77736 | 12.89816 | 3384 ft | 198 kts | 200° |
| 2026-05-04 20:17 | 55.76595 | 12.88679 | 3261 ft | 184 kts | 225° |
| 2026-05-04 20:18 | 55.75664 | 12.87217 | 3159 ft | 173 kts | 225° |
| 2026-05-04 20:18 | 55.74787 | 12.85841 | 3083 ft | 165 kts | 225° |
| 2026-05-04 20:18 | 55.73929 | 12.84496 | 2987 ft | 164 kts | 225° |
| 2026-05-04 20:18 | 55.73078 | 12.83164 | 2818 ft | 163 kts | 225° |
| 2026-05-04 20:19 | 55.72230 | 12.81839 | 2600 ft | 162 kts | 225° |
| 2026-05-04 20:19 | 55.71387 | 12.80522 | 2391 ft | 162 kts | 226° |
| 2026-05-04 20:19 | 55.70554 | 12.79223 | 2199 ft | 162 kts | 225° |
| 2026-05-04 20:19 | 55.69708 | 12.77905 | 1955 ft | 161 kts | 226° |
| 2026-05-04 20:20 | 55.68855 | 12.76575 | 1739 ft | 161 kts | 226° |
| 2026-05-04 20:20 | 55.68024 | 12.75282 | 1511 ft | 161 kts | 226° |
| 2026-05-04 20:20 | 55.67175 | 12.73960 | 1308 ft | 159 kts | 225° |
| 2026-05-04 20:20 | 55.66384 | 12.72735 | 1077 ft | 148 kts | 225° |
| 2026-05-04 20:21 | 55.65633 | 12.71567 | 849 ft | 141 kts | 225° |
| 2026-05-04 20:21 | 55.64902 | 12.70432 | 673 ft | 139 kts | 224° |
| 2026-05-04 20:21 | 55.63438 | 12.68159 | 302 ft | 141 kts | 224° |
| 2026-05-04 20:22 | 55.62699 | 12.67004 | 108 ft | 143 kts | 224° |
| 2026-05-04 20:22 | 55.61979 | 12.65883 | 28 ft | 124 kts | 223° |
| 2026-05-04 20:22 | 55.61454 | 12.65068 | 24 ft | 73 kts | 222° |
| 2026-05-04 20:22 | 55.61258 | 12.64638 | 24 ft | 41 kts | 246° |
| 2026-05-04 20:23 | 55.61198 | 12.64312 | 24 ft | 20 kts | 253° |
| 2026-05-04 20:23 | 55.61190 | 12.64250 | 26 ft | 1 kts | 263° |
| 2026-05-04 20:23 | 55.61199 | 12.64170 | 25 ft | 13 kts | 296° |
| 2026-05-04 20:23 | 55.61289 | 12.64123 | 24 ft | 16 kts | 21° |
| 2026-05-04 20:24 | 55.61400 | 12.64248 | 24 ft | 21 kts | 32° |
| 2026-05-04 20:24 | 55.61531 | 12.64398 | 26 ft | 24 kts | 33° |
| 2026-05-04 20:24 | 55.61680 | 12.64567 | 24 ft | 27 kts | 32° |
| 2026-05-04 20:24 | 55.61841 | 12.64755 | 26 ft | 29 kts | 32° |
| 2026-05-04 20:25 | 55.61988 | 12.64923 | 24 ft | 20 kts | 32° |
| 2026-05-04 20:25 | 55.62086 | 12.65037 | 26 ft | 15 kts | 35° |
| 2026-05-04 20:25 | 55.62105 | 12.65060 | 24 ft | 0 kts | 34° |
| 2026-05-04 20:25 | 55.62118 | 12.65075 | 26 ft | 0 kts | 33° |
| 2026-05-04 20:27 | 55.62135 | 12.65095 | 25 ft | 7 kts | 33° |
| 2026-05-04 20:27 | 55.62182 | 12.65150 | 25 ft | 10 kts | 33° |
| 2026-05-04 20:27 | 55.62259 | 12.65199 | 24 ft | 13 kts | 1° |
| 2026-05-04 20:27 | 55.62351 | 12.65205 | 24 ft | 9 kts | 1° |
| 2026-05-04 20:28 | 55.62433 | 12.65199 | 24 ft | 15 kts | 356° |
| 2026-05-04 20:28 | 55.62486 | 12.65187 | 24 ft | 8 kts | 352° |
| 2026-05-04 20:28 | 55.62559 | 12.65182 | 24 ft | 6 kts | 358° |
| 2026-05-04 20:28 | 55.62576 | 12.65138 | 24 ft | 7 kts | 268° |
| 2026-05-04 20:29 | 55.62573 | 12.65073 | 24 ft | 3 kts | 268° |
| 2026-05-04 20:29 | 55.62573 | 12.65036 | 24 ft | 3 kts | 268° |
| 2026-05-04 20:29 | 55.62573 | 12.65018 | 24 ft | 0 kts | 268° |